• Join FlightAware (Why Join?)
  • Login
  • US Flag 
06:47PM EST


 

Airport Tracker/Info


-or-


 

Live Flight TrackerFlight Track Log ✈ UAL4567 ✈ 21-Apr-2013 ✈ KMCI - KCLE

Flight Track Log - Related Links

Times and Time Zones

All times are in EDT time to prevent confusion due to time zone crossing. See the UAL4567 flight status page for this flight to view local times or setup timezone preferences in your user account.

Time Position Orientation Groundspeed Altitude Reporting Facility
EDT Latitude Longitude Course Direction KTS MPH feet Rate Location/Type
04:31PM 39.3000 -94.7333 166° South 150 173 1,600  Level Kansas City TRACON
04:32PM 39.2500 -94.7167 166° South 197 227 4,100 2,350 Climbing Kansas City TRACON
04:33PM 39.2000 -94.6833 153° Southeast 230 265 6,300 2,139 Climbing Kansas City TRACON
04:34PM 39.2267 -94.6175 62° Northeast 280 322 8,200 2,441 Climbing Kansas City Center
04:35PM 39.3006 -94.5492 36° Northeast 294 338 11,100 1,984 Climbing Kansas City Center
04:36PM 39.3731 -94.4842 35° Northeast 332 382 12,300 1,415 Climbing Kansas City Center
04:37PM 39.4667 -94.3981 35° Northeast 369 425 14,000 1,756 Climbing Kansas City Center
04:38PM 39.5478 -94.3208 36° Northeast 376 433 15,900 1,824 Climbing Kansas City Center
04:39PM 39.6428 -94.2331 35° Northeast 376 433 17,800 1,728 Climbing Kansas City Center
04:40PM 39.7239 -94.1553 36° Northeast 377 434 19,500 1,645 Climbing Kansas City Center
04:41PM 39.8156 -94.0686 36° Northeast 385 443 21,200 1,500 Climbing Kansas City Center
04:42PM 39.8950 -93.9900 37° Northeast 389 448 22,600 1,452 Climbing Kansas City Center
04:43PM 39.9850 -93.9094 34° Northeast 393 452 24,200 1,707 Climbing Kansas City Center
04:44PM 40.0411 -93.7564 64° Northeast 394 453 26,100 1,694 Climbing Kansas City Center
04:45PM 40.0783 -93.6281 69° East 385 443 27,700 1,536 Climbing Kansas City Center
04:46PM 40.1181 -93.5003 68° East 382 440 29,300 1,306 Climbing Kansas City Center
04:47PM 40.1572 -93.3717 68° East 384 442 30,400 823 Climbing Kansas City Center
04:48PM 40.1972 -93.2403 68° East 390 449 31,000 293 Climbing Kansas City Center
04:49PM 40.2500 -93.0686 68° East 426 490 31,000  Level Kansas City Center
04:50PM 40.2975 -92.9106 68° East 449 517 31,000 429 Level Kansas City Center
04:51PM 40.3425 -92.7625 68° East 457 526 31,900 1,041 Climbing Kansas City Center
04:52PM 40.3931 -92.5861 69° East 458 527 33,100 1,082 Climbing Kansas City Center
04:53PM 40.4389 -92.4342 68° East 449 517 34,100 905 Climbing Kansas City Center
04:54PM 40.4797 -92.2931 69° East 446 513 35,000 425 Climbing Kansas City Center
04:55PM 40.5233 -92.1417 69° East 445 512 35,000  Level Kansas City Center
04:57PM 40.5778 -91.9508 69° East 461 531 35,000  Level Kansas City Center
04:58PM 40.6239 -91.7914 69° East 467 537 35,000  Level Kansas City Center
04:59PM 40.6689 -91.6308 70° East 470 541 35,000  Level Kansas City Center
04:59PM 40.7139 -91.4694 70° East 472 543 35,000  Level Chicago Center
05:01PM 40.7597 -91.3097 69° East 470 541 35,000  Level Chicago Center
05:02PM 40.7997 -91.1625 70° East 470 541 35,000  Level Chicago Center
05:03PM 40.8383 -90.9617 76° East 471 542 35,000  Level Chicago Center
05:04PM 40.8725 -90.7944 75° East 471 542 35,000  Level Chicago Center
05:05PM 40.9047 -90.6236 76° East 478 550 35,000  Level Chicago Center
05:06PM 40.9378 -90.4544 75° East 475 547 35,000  Level Chicago Center
05:07PM 40.9706 -90.2819 76° East 479 551 35,000  Level Chicago Center
05:08PM 41.0025 -90.1103 76° East 479 551 35,000  Level Chicago Center
05:09PM 41.0364 -89.9375 75° East 478 550 35,000  Level Chicago Center
05:10PM 41.0681 -89.7647 76° East 478 550 35,000  Level Chicago Center
05:11PM 41.0997 -89.5922 76° East 479 551 35,000  Level Chicago Center
05:12PM 41.1372 -89.3869 76° East 476 548 35,000  Level Chicago Center
05:13PM 41.1689 -89.2169 76° East 476 548 35,000  Level Chicago Center
05:14PM 41.1983 -89.0464 77° East 472 543 35,000  Level Chicago Center
05:15PM 41.2278 -88.8778 77° East 472 543 35,000  Level Chicago Center
05:16PM 41.2572 -88.7100 77° East 471 542 35,000  Level Chicago Center
05:17PM 41.2872 -88.5411 77° East 470 541 35,000  Level Chicago Center
05:18PM 41.3222 -88.3408 77° East 467 537 35,000  Level Chicago Center
05:19PM 41.3508 -88.1750 77° East 466 536 35,000  Level Chicago Center
05:20PM 41.3800 -87.9964 78° East 472 543 35,000  Level Chicago Center
05:21PM 41.4103 -87.8181 77° East 462 532 35,000  Level Chicago Center
05:22PM 41.4389 -87.6494 77° East 470 541 35,000  Level Chicago Center
05:23PM 41.4661 -87.4814 78° East 465 535 35,000  Level Chicago Center
05:24PM 41.4936 -87.3128 78° East 465 535 35,000  Level Chicago Center
05:25PM 41.5214 -87.1439 78° East 467 537 35,000  Level Chicago Center
05:26PM 41.5481 -86.9747 78° East 467 537 35,000  Level Chicago Center
05:27PM 41.5803 -86.7719 78° East 466 536 35,000  Level Chicago Center
05:28PM 41.6031 -86.6256 78° East 467 537 35,000  Level Chicago Center
05:29PM 41.6342 -86.4211 78° East 469 540 35,000 -98 Level Chicago Center
05:30PM 41.6603 -86.2500 78° East 468 539 34,800 -484 Descending Chicago Center
05:31PM 41.6861 -86.0778 79° East 470 541 34,000 -726 Descending Chicago Center
05:32PM 41.7144 -85.9039 78° East 476 548 33,300 -484 Descending Chicago Center
05:34PM 41.7708 -85.7381 65° Northeast 481 554 33,000 -146 Descending Chicago Center
05:35PM 41.8261 -85.5711 66° East 484 557 33,000  Level Chicago Center
05:36PM 41.8828 -85.4047 65° Northeast 483 556 33,000  Level Chicago Center
05:36PM 41.9133 -85.2939 70° East 492 566 33,000  Level Cleveland Center
05:37PM 41.9267 -85.1161 84° East 473 544 33,000  Level Cleveland Center
05:38PM 41.9400 -84.9356 84° East 473 544 33,000  Level Cleveland Center
05:39PM 41.9550 -84.7550 84° East 478 550 33,000 -250 Level Cleveland Center
05:40PM 41.9656 -84.5742 85° East 478 550 32,500 -750 Descending Cleveland Center
05:41PM 41.9842 -84.3964 82° East 478 550 31,500 -955 Descending Cleveland Center
05:43PM 42.0036 -84.1047 85° East 487 560 30,000 -1,000 Descending Chicago Center
05:43PM 42.0064 -84.0206 87° East 478 550 29,500 -1,084 Descending Cleveland Center
05:44PM 42.0200 -83.8394 84° East 478 550 28,500 -1,400 Descending Cleveland Center
05:45PM 42.0314 -83.6583 85° East 478 550 26,700 -1,900 Descending Cleveland Center
05:46PM 42.0417 -83.4994 85° East 478 550 24,700 -1,550 Descending Cleveland Center
05:47PM 42.0317 -83.3117 94° East 472 543 23,600 -1,100 Descending Cleveland Center
05:48PM 42.0169 -83.1406 97° East 465 535 22,500 -1,150 Descending Cleveland Center
05:49PM 42.0014 -82.9861 98° East 460 529 21,300 -1,700 Descending Cleveland Center
05:50PM 41.9839 -82.8264 98° East 454 522 19,100 -2,250 Descending Cleveland Center
05:51PM 41.9700 -82.6750 97° East 432 497 16,800 -2,150 Descending Cleveland Center
05:52PM 41.9475 -82.5292 102° East 410 472 14,800 -2,050 Descending Cleveland Center
05:53PM 41.9081 -82.3967 112° Southeast 392 451 12,700 -2,325 Descending Cleveland Center
05:54PM 41.8903 -82.3403 113° Southeast 376 433 11,700 -2,300 Descending Cleveland Center
05:54PM 41.8683 -82.2700 113° Southeast 375 432 10,400 -1,433 Descending Cleveland Center
05:55PM 41.8483 -82.2083 114° Southeast 362 417 10,100 -300 Descending Cleveland Center
05:55PM 41.8178 -82.1600 130° Southeast 356 410 10,100 -98 Level Cleveland Center
05:56PM 41.7725 -82.1228 148° Southeast 328 377 10,000 -809 Descending Cleveland Center
05:57PM 41.7064 -82.0683 148° Southeast 268 308 8,900 -1,174 Descending Cleveland Center
05:57PM 41.6797 -82.0428 144° Southeast 293 337 8,200 -1,279 Descending Cleveland Center
05:58PM 41.6403 -82.0139 151° Southeast 271 312 7,600 -1,000 Descending Cleveland Center
05:58PM 41.6178 -81.9914 143° Southeast 275 316 7,200 -492 Descending Cleveland Center
05:59PM 41.5786 -81.9628 151° Southeast 263 303 7,100 -200 Descending Cleveland Center
05:59PM 41.5539 -81.9400 145° Southeast 270 311 7,000 -100 Descending Cleveland Center
06:00PM 41.5144 -81.9142 154° Southeast 262 302 7,000  Level Cleveland Center
06:00PM 41.4894 -81.9081 170° South 255 293 7,000 98 Level Cleveland Center
06:01PM 41.4581 -81.9158 191° South 190 219 7,100  Climbing Cleveland Center
06:01PM 41.4453 -81.9378 232° Southwest 189 217 7,000 -98 Descending Cleveland Center
06:02PM 41.4242 -81.9789 236° Southwest 196 226 7,000 -500 Level Cleveland Center
06:02PM 41.4156 -81.9953 235° Southwest 181 208 6,500 -1,279 Descending Cleveland Center
06:03PM 41.3961 -82.0364 238° Southwest 182 209 5,700 -1,300 Descending Cleveland Center
06:03PM 41.3856 -82.0472 218° Southwest 188 216 5,200 -1,377 Descending Cleveland Center
06:04PM 41.3606 -82.0439 174° South 158 182 4,300 -1,313 Descending Cleveland Center
06:05PM 41.3258 -82.0017 138° Southeast 160 184 3,100 -934 Descending Cleveland Center
06:06PM 41.3514 -81.9522 55° Northeast 153 176 2,400 -694 Descending Cleveland Center
06:07PM 41.3747 -81.9169 49° Northeast 122 140 1,700 -694 Descending Cleveland Center
06:08PM 41.3961 -81.8786 53° Northeast 131 151 1,000 -689 Descending Cleveland Center
06:10PM 41.4000 -81.8500 70° East  Level FlightAware Approximate